• Join FlightAware (Why Join?)
  • Login
  • US Flag 
11:42PM EDT


 

Airport Tracker/Info


-or-


 

Live Flight TrackerFlight Track Log ✈ SWA2852 ✈ 18-Apr-2013 ✈ KROC - KMDW

Flight Track Log - Related Links

Times and Time Zones

All times are in EDT time to prevent confusion due to time zone crossing. See the SWA2852 flight status page for this flight to view local times or setup timezone preferences in your user account.

Time Position Orientation Groundspeed Altitude Reporting Facility
EDT Latitude Longitude Course Direction KTS MPH feet Rate Location/Type
04:09PM 43.1036 -77.6914 221° Southwest 158 182 1,300  Level Cleveland Center
04:10PM 43.0914 -77.7061 221° Southwest 147 169 2,100 2,100 Climbing Cleveland Center
04:12PM 43.1031 -77.8419 277° West 233 268 6,000 2,460 Climbing Cleveland Center
04:13PM 43.1178 -77.9353 282° West 246 283 9,000 2,460 Climbing Cleveland Center
04:14PM 43.0650 -78.0000 222° Southwest 219 252 11,000 2,160 Climbing Cleveland Center
04:15PM 42.9958 -78.0767 219° Southwest 264 304 13,400 2,700 Climbing Cleveland Center
04:16PM 42.9203 -78.1536 217° Southwest 309 356 16,400 3,000 Climbing Cleveland Center
04:17PM 42.8428 -78.2331 217° Southwest 339 390 19,500 1,200 Climbing Cleveland Center
04:19PM 42.7428 -78.4544 238° Southwest 347 399 20,000 120 Climbing Cleveland Center
04:20PM 42.7161 -78.5853 255° West 352 405 20,000 60 Level Cleveland Center
04:21PM 42.6911 -78.7189 256° West 363 418 20,200 1,260 Climbing Cleveland Center
04:22PM 42.6639 -78.8525 255° West 368 423 22,600 2,340 Climbing Cleveland Center
04:23PM 42.6369 -78.9914 255° West 379 436 24,900 2,100 Climbing Cleveland Center
04:24PM 42.6075 -79.1333 254° West 379 436 26,800 1,740 Climbing Cleveland Center
04:25PM 42.5800 -79.2806 256° West 390 449 28,400 1,380 Climbing Cleveland Center
04:26PM 42.5483 -79.4333 254° West 407 468 29,600 1,320 Climbing Cleveland Center
04:27PM 42.5144 -79.5944 254° West 432 497 31,100 1,800 Climbing Cleveland Center
04:28PM 42.4781 -79.7528 253° West 443 510 33,200 2,160 Climbing Cleveland Center
04:29PM 42.4417 -79.9247 254° West 437 503 35,500 1,800 Climbing Cleveland Center
04:30PM 42.4153 -80.0572 255° West 422 486 36,800 1,200 Climbing Cleveland Center
04:31PM 42.3825 -80.2094 254° West 422 486 38,000 600 Climbing Cleveland Center
04:32PM 42.3494 -80.3725 255° West 417 480 38,000  Level Cleveland Center
04:33PM 42.3164 -80.5186 253° West 417 480 38,000  Level Cleveland Center
04:34PM 42.2850 -80.6675 254° West 417 480 38,000  Level Cleveland Center
04:35PM 42.2536 -80.8103 254° West 411 473 38,000  Level Cleveland Center
04:36PM 42.2200 -80.9533 252° West 411 473 38,000  Level Cleveland Center
04:37PM 42.1881 -81.0989 254° West 411 473 38,000  Level Cleveland Center
04:38PM 42.1561 -81.2469 254° West 411 473 38,000  Level Cleveland Center
04:39PM 42.1239 -81.3894 253° West 405 466 38,000  Level Cleveland Center
04:40PM 42.0914 -81.5317 253° West 400 460 38,000  Level Cleveland Center
04:41PM 42.0589 -81.6739 253° West 400 460 38,000  Level Cleveland Center
04:42PM 42.0264 -81.8186 253° West 400 460 38,000  Level Cleveland Center
04:43PM 41.9914 -81.9603 252° West 400 460 38,000  Level Cleveland Center
04:44PM 41.9625 -82.0883 253° West 400 460 38,000  Level Cleveland Center
04:45PM 41.9228 -82.2436 251° West 400 460 38,000  Level Cleveland Center
04:46PM 41.8917 -82.3850 254° West 400 460 38,000  Level Cleveland Center
04:47PM 41.8581 -82.5236 252° West 400 460 38,000  Level Cleveland Center
04:48PM 41.8264 -82.6647 253° West 400 460 38,000  Level Cleveland Center
04:49PM 41.7906 -82.8028 251° West 400 460 38,000  Level Cleveland Center
04:50PM 41.7542 -82.9436 251° West 400 460 38,000  Level Cleveland Center
04:51PM 41.7242 -83.0817 254° West 400 460 38,000  Level Cleveland Center
04:52PM 41.6897 -83.2219 252° West 400 460 38,000  Level Cleveland Center
04:53PM 41.6553 -83.3594 252° West 400 460 38,000  Level Cleveland Center
04:54PM 41.6206 -83.4997 252° West 400 460 38,000 -480 Level Cleveland Center
04:55PM 41.5878 -83.6344 252° West 400 460 37,100 -960 Descending Cleveland Center
04:56PM 41.5550 -83.7717 252° West 395 455 36,100 -1,020 Descending Cleveland Center
04:57PM 41.5342 -83.9147 259° West 395 455 35,100 -1,080 Descending Cleveland Center
04:58PM 41.5728 -84.1425 283° West 414 476 33,300 -1,440 Descending Chicago Center
04:59PM 41.6008 -84.2906 284° West 414 476 31,300 -1,620 Descending Chicago Center
05:00PM 41.6158 -84.4436 278° West 419 482 30,000 -660 Descending Chicago Center
05:01PM 41.6056 -84.5978 265° West 416 479 30,000 -120 Level Chicago Center
05:02PM 41.5978 -84.7492 266° West 411 473 29,800 -1,500 Descending Chicago Center
05:03PM 41.5883 -84.9300 266° West 408 470 27,000 -2,040 Descending Chicago Center
05:04PM 41.5806 -85.0814 266° West 409 471 25,600 -1,260 Descending Chicago Center
05:05PM 41.5725 -85.2200 266° West 379 436 24,500 -1,020 Descending Chicago Center
05:06PM 41.5639 -85.3558 265° West 366 421 23,500 -1,020 Descending Chicago Center
05:07PM 41.5569 -85.4906 266° West 352 405 22,400 -1,080 Descending Chicago Center
05:08PM 41.5494 -85.6186 266° West 340 391 21,400 -1,080 Descending Chicago Center
05:09PM 41.5422 -85.7350 265° West 312 359 20,200 -1,080 Descending Chicago Center
05:11PM 41.5358 -85.8422 265° West 292 336 19,200 -1,140 Descending Chicago Center
05:12PM 41.5297 -85.9467 266° West 283 326 17,900 -1,380 Descending Chicago Center
05:13PM 41.5242 -86.0494 266° West 277 319 16,400 -1,740 Descending Chicago Center
05:14PM 41.5239 -86.1750 270° West 281 323 14,400 -1,440 Descending Chicago Center
05:15PM 41.5228 -86.2767 269° West 275 316 13,500 -1,560 Descending Chicago Center
05:16PM 41.5222 -86.3825 270° West 286 329 11,200 -1,320 Descending Chicago Center
05:17PM 41.5225 -86.4778 270° West 260 299 10,900 -540 Descending Chicago Center
05:18PM 41.5219 -86.5567 269° West 219 252 10,100 -900 Descending Chicago Center
05:19PM 41.5214 -86.6322 269° West 206 237 9,100 -960 Descending Chicago Center
05:20PM 41.5211 -86.7128 270° West 200 230 8,200 -480 Descending Chicago Center
05:21PM 41.5200 -86.7850 269° West 197 227 8,200  Level Chicago Center
05:22PM 41.5192 -86.8689 269° West 190 219 8,200  Level Chicago Center
05:23PM 41.5236 -86.9375 275° West 189 217 8,200 -780 Level Chicago Center
05:24PM 41.5278 -87.0117 274° West 202 232 6,700 -1,080 Descending Chicago Center
05:25PM 41.5253 -87.0989 268° West 231 266 6,000 -540 Descending Chicago Center
05:26PM 41.5211 -87.1869 266° West 239 275 5,700 -540 Descending Chicago Center
05:27PM 41.5328 -87.2794 280° West 250 288 4,900 -840 Descending Chicago Center
05:28PM 41.5531 -87.3931 283° West 263 303 4,000 -540 Descending Chicago Center
05:29PM 41.5844 -87.4706 298° West 250 288 3,900  Descending Chicago Center
05:30PM 41.6247 -87.5261 314° West 228 262 4,000  Climbing Chicago Center
05:31PM 41.6603 -87.5772 313° West 208 239 4,000 -540 Level Chicago Center
05:32PM 41.6933 -87.6244 313° West 191 220 3,000 -1,020 Descending Chicago Center
05:33PM 41.7333 -87.6667 322° Northwest 167 192 2,100 -960 Descending Chicago TRACON
05:34PM 41.7500 -87.7167 294° West 156 180 1,200 -900 Descending Chicago TRACON
05:37PM 41.7833 -87.7500 North  Level FlightAware Approximate